Time;durP1;ratioP1;P1;durP2;ratioP2;P2;SDS_P1;SDS_P2;PMS_P1;PMS_P2;Temp;Humidity;BMP_temperature;BMP_pressure;BME280_temperature;BME280_humidity;BME280_pressure;Samples;Min_cycle;Max_cycle;Signal;HPM_P1;HPM_P2
2022/10/15 00:00:36;;;;;;;36.15;22.65;;;12.70;99.90;;;;;;5052170;28;20055;-73
2022/10/15 00:03:02;;;;;;;39.60;24.33;;;12.70;99.90;;;;;;5053100;28;20137;-74
2022/10/15 00:05:28;;;;;;;43.83;24.00;;;12.80;99.90;;;;;;5051844;28;20396;-75
2022/10/15 00:07:54;;;;;;;40.05;23.10;;;12.70;99.90;;;;;;5053127;28;20132;-73
2022/10/15 00:10:20;;;;;;;39.75;23.13;;;13.00;99.90;;;;;;5051406;28;20052;-73
2022/10/15 00:12:46;;;;;;;36.40;21.58;;;12.70;99.90;;;;;;5052057;28;20496;-74
2022/10/15 00:15:12;;;;;;;49.20;26.35;;;12.80;99.90;;;;;;5052836;28;20057;-74
2022/10/15 00:17:38;;;;;;;49.85;25.75;;;12.60;99.90;;;;;;5052193;28;20041;-74
2022/10/15 00:20:08;;;;;;;48.40;25.83;;;12.70;99.90;;;;;;5052941;28;20123;-74
2022/10/15 00:22:34;;;;;;;39.97;24.27;;;12.70;99.90;;;;;;5052810;28;20378;-73
2022/10/15 00:24:59;;;;;;;45.08;25.23;;;12.80;99.90;;;;;;5051573;28;20041;-74
2022/10/15 00:27:25;;;;;;;43.03;25.00;;;12.70;99.90;;;;;;5052921;28;20041;-73
2022/10/15 00:29:51;;;;;;;44.42;25.50;;;13.30;99.90;;;;;;5052666;28;20056;-73
2022/10/15 00:32:17;;;;;;;38.45;24.05;;;12.70;99.90;;;;;;5053029;28;20041;-75
2022/10/15 00:34:43;;;;;;;45.40;26.38;;;12.70;99.90;;;;;;5051205;28;20053;-74
2022/10/15 00:37:09;;;;;;;48.95;25.38;;;12.60;99.90;;;;;;5052631;28;20056;-73
2022/10/15 00:39:35;;;;;;;44.38;25.02;;;12.70;99.90;;;;;;5052688;28;20377;-73
2022/10/15 00:42:01;;;;;;;43.20;26.05;;;12.70;99.90;;;;;;5050783;28;20049;-73
2022/10/15 00:44:30;;;;;;;49.75;26.27;;;12.60;99.90;;;;;;5052966;28;20048;-74
2022/10/15 00:47:02;;;;;;;40.72;24.13;;;12.70;99.90;;;;;;5051511;28;20080;-75
2022/10/15 00:49:39;;;;;;;41.95;24.90;;;12.60;99.90;;;;;;5052566;28;20100;-73
2022/10/15 00:52:09;;;;;;;43.90;25.27;;;12.60;99.90;;;;;;5052600;28;20049;-73
2022/10/15 00:54:40;;;;;;;42.15;25.13;;;12.60;99.90;;;;;;5052356;28;20041;-74
2022/10/15 00:57:07;;;;;;;42.85;25.58;;;12.70;99.90;;;;;;5052609;28;20397;-73
2022/10/15 00:59:37;;;;;;;41.40;25.77;;;12.70;99.90;;;;;;5052514;28;20056;-73
2022/10/15 01:02:05;;;;;;;41.20;25.23;;;12.70;99.90;;;;;;5052111;28;20057;-73
2022/10/15 01:04:31;;;;;;;36.03;23.77;;;12.70;99.90;;;;;;5052402;28;20080;-74
2022/10/15 01:06:57;;;;;;;37.03;25.80;;;12.70;99.90;;;;;;5051730;28;20049;-73
2022/10/15 01:09:23;;;;;;;50.35;29.80;;;12.70;99.90;;;;;;5051964;28;20493;-72
2022/10/15 01:11:54;;;;;;;36.88;24.30;;;12.70;99.90;;;;;;5050688;28;20382;-73
2022/10/15 01:14:56;;;;;;;39.80;23.77;;;12.90;99.90;;;;;;5051931;28;20040;-74
2022/10/15 01:17:48;;;;;;;41.47;25.95;;;12.70;99.90;;;;;;5052350;28;20045;-73
2022/10/15 01:20:26;;;;;;;40.63;25.23;;;12.70;99.90;;;;;;5034590;28;20118;-74
2022/10/15 01:23:13;;;;;;;41.78;26.83;;;12.60;99.90;;;;;;5051980;28;20056;-73
2022/10/15 01:25:38;;;;;;;38.60;24.15;;;12.60;99.90;;;;;;5052376;28;20048;-74
2022/10/15 01:28:17;;;;;;;42.33;24.17;;;12.70;99.90;;;;;;5051734;28;20049;-73
2022/10/15 01:30:47;;;;;;;44.15;25.77;;;12.70;99.90;;;;;;5056005;28;20067;-73
2022/10/15 01:33:35;;;;;;;34.97;23.27;;;12.60;99.90;;;;;;5054430;28;20135;-74
2022/10/15 01:36:26;;;;;;;41.00;25.08;;;12.60;99.90;;;;;;5055799;28;20060;-73
2022/10/15 01:38:59;;;;;;;41.08;25.23;;;12.70;99.90;;;;;;5054775;28;20085;-73
2022/10/15 01:41:43;;;;;;;40.35;23.88;;;12.70;99.90;;;;;;5055218;28;20084;-74
2022/10/15 01:44:19;;;;;;;47.13;26.20;;;12.60;99.90;;;;;;5055674;28;20048;-73
2022/10/15 01:46:49;;;;;;;38.55;23.55;;;12.60;99.90;;;;;;5055720;28;20084;-73
2022/10/15 01:49:20;;;;;;;37.58;22.20;;;12.60;99.90;;;;;;5055341;28;20501;-74
2022/10/15 01:51:48;;;;;;;36.80;24.25;;;12.80;99.90;;;;;;5055689;28;20049;-74
2022/10/15 01:54:17;;;;;;;38.88;24.02;;;12.60;99.90;;;;;;5070886;28;20049;-73
2022/10/15 01:56:49;;;;;;;42.35;24.63;;;12.70;99.90;;;;;;5055164;28;20546;-73
2022/10/15 01:59:21;;;;;;;37.28;23.88;;;12.60;99.90;;;;;;5055549;28;20040;-73
2022/10/15 02:01:47;;;;;;;44.95;25.77;;;12.50;99.90;;;;;;5071198;28;20124;-73
2022/10/15 02:04:21;;;;;;;41.63;24.38;;;12.50;99.90;;;;;;5055150;28;20073;-73
2022/10/15 02:07:02;;;;;;;41.20;24.38;;;12.50;99.90;;;;;;5055283;28;20123;-74
2022/10/15 02:09:37;;;;;;;43.40;24.88;;;12.60;99.90;;;;;;5055105;28;20103;-74
2022/10/15 02:12:32;;;;;;;43.83;24.92;;;12.60;99.90;;;;;;5054681;28;20053;-73
2022/10/15 02:15:19;;;;;;;40.15;23.10;;;12.50;99.90;;;;;;5054798;28;20433;-74
2022/10/15 02:18:28;;;;;;;37.20;22.88;;;12.60;99.90;;;;;;5054269;28;20075;-73
2022/10/15 02:21:06;;;;;;;39.00;24.67;;;12.50;99.90;;;;;;5032794;28;20053;-74
2022/10/15 02:24:02;;;;;;;36.78;24.10;;;12.60;99.90;;;;;;5051364;28;20119;-74
2022/10/15 02:26:29;;;;;;;44.50;27.15;;;13.20;99.90;;;;;;5054903;28;20857;-74
2022/10/15 02:28:59;;;;;;;37.65;23.33;;;12.80;99.90;;;;;;5054862;28;20045;-74
2022/10/15 02:31:28;;;;;;;46.70;26.90;;;12.40;99.90;;;;;;5054686;28;20400;-75
2022/10/15 02:33:59;;;;;;;42.78;25.75;;;12.40;99.90;;;;;;5053502;28;20053;-73
2022/10/15 02:36:26;;;;;;;39.42;24.70;;;12.70;99.90;;;;;;5054865;28;20045;-74
2022/10/15 02:38:55;;;;;;;46.92;26.75;;;12.50;99.90;;;;;;5054702;28;20044;-74
2022/10/15 02:41:21;;;;;;;50.08;27.75;;;12.50;99.90;;;;;;5053356;28;20183;-74
2022/10/15 02:43:47;;;;;;;44.92;27.10;;;12.50;99.90;;;;;;5053560;28;20114;-73
2022/10/15 02:46:14;;;;;;;49.80;28.48;;;12.50;99.90;;;;;;5054457;28;20431;-73
2022/10/15 02:48:40;;;;;;;50.92;28.77;;;12.50;99.90;;;;;;5053544;28;20095;-74
2022/10/15 02:51:06;;;;;;;39.17;24.65;;;12.50;99.90;;;;;;5054511;28;20044;-73
2022/10/15 02:53:32;;;;;;;42.00;26.13;;;12.40;99.90;;;;;;5053155;28;20037;-72
2022/10/15 02:55:58;;;;;;;44.78;27.00;;;12.60;99.90;;;;;;5053078;28;20554;-73
2022/10/15 02:58:24;;;;;;;49.75;28.55;;;12.50;99.90;;;;;;5053428;28;20052;-73
2022/10/15 03:00:50;;;;;;;44.10;26.63;;;12.30;99.90;;;;;;5052995;28;20048;-74
2022/10/15 03:03:16;;;;;;;46.83;26.48;;;12.50;99.90;;;;;;5054424;28;20041;-73
2022/10/15 03:05:42;;;;;;;53.15;28.77;;;12.50;99.90;;;;;;5054167;28;20124;-73
2022/10/15 03:08:08;;;;;;;43.92;27.00;;;12.50;99.90;;;;;;5069617;28;20052;-73
2022/10/15 03:10:33;;;;;;;47.28;27.80;;;12.40;99.90;;;;;;5053545;28;20060;-73
2022/10/15 03:13:03;;;;;;;52.63;29.17;;;12.40;99.90;;;;;;5053218;28;20052;-74
2022/10/15 03:15:29;;;;;;;51.90;27.52;;;12.40;99.90;;;;;;5036395;28;20121;-73
2022/10/15 03:17:55;;;;;;;45.67;27.20;;;12.20;99.90;;;;;;5052822;28;20559;-73
2022/10/15 03:20:21;;;;;;;48.55;27.63;;;12.40;99.90;;;;;;5053772;28;20116;-73
2022/10/15 03:22:47;;;;;;;51.92;28.00;;;12.40;99.90;;;;;;5053886;28;20045;-73
2022/10/15 03:25:13;;;;;;;43.00;25.40;;;12.60;99.90;;;;;;5052633;28;20052;-73
2022/10/15 03:27:38;;;;;;;52.53;28.75;;;12.40;99.90;;;;;;5019827;28;20049;-74
2022/10/15 03:30:05;;;;;;;47.30;26.73;;;12.50;99.90;;;;;;5053922;28;20045;-73
2022/10/15 03:32:30;;;;;;;42.90;24.45;;;12.40;99.90;;;;;;5052415;28;20048;-73
2022/10/15 03:34:56;;;;;;;50.25;27.65;;;12.40;99.90;;;;;;5053532;28;20044;-73
2022/10/15 03:37:21;;;;;;;36.70;23.45;;;12.80;99.90;;;;;;5053515;28;20048;-73
2022/10/15 03:39:47;;;;;;;41.03;25.75;;;12.40;99.90;;;;;;5053435;28;20405;-73
2022/10/15 03:42:13;;;;;;;40.75;24.95;;;12.60;99.90;;;;;;5052067;28;20071;-73
2022/10/15 03:44:39;;;;;;;40.55;24.90;;;12.50;99.90;;;;;;5035882;28;20102;-73
2022/10/15 03:47:04;;;;;;;42.05;24.80;;;12.40;99.90;;;;;;5069043;28;20381;-73
2022/10/15 03:49:30;;;;;;;44.88;24.52;;;12.60;99.90;;;;;;5052429;28;20049;-73
2022/10/15 03:51:56;;;;;;;37.97;22.98;;;12.50;99.90;;;;;;5052279;28;20052;-73
2022/10/15 03:54:21;;;;;;;36.10;21.33;;;12.50;99.90;;;;;;5051830;28;20052;-73
2022/10/15 03:56:47;;;;;;;40.35;24.70;;;12.40;99.90;;;;;;5052506;28;20037;-73
2022/10/15 03:59:13;;;;;;;40.83;23.92;;;12.60;99.90;;;;;;5053027;28;20512;-73
2022/10/15 04:01:39;;;;;;;39.00;22.85;;;12.50;99.90;;;;;;5053161;28;20049;-73
2022/10/15 04:04:04;;;;;;;41.58;23.65;;;12.30;99.90;;;;;;5053438;28;20091;-73
2022/10/15 04:06:33;;;;;;;44.88;24.48;;;12.30;99.90;;;;;;5052966;28;20045;-73
2022/10/15 04:08:59;;;;;;;35.95;22.48;;;12.30;99.90;;;;;;5053199;28;20049;-73
2022/10/15 04:11:24;;;;;;;40.50;23.90;;;12.30;99.90;;;;;;5052919;28;20061;-78
2022/10/15 04:13:50;;;;;;;38.30;23.17;;;12.30;99.90;;;;;;5051512;28;20086;-73
2022/10/15 04:16:16;;;;;;;44.78;24.10;;;12.40;99.90;;;;;;5053002;28;20040;-74
2022/10/15 04:18:42;;;;;;;42.38;23.02;;;12.30;99.90;;;;;;5052810;28;20048;-73
2022/10/15 04:21:08;;;;;;;43.03;24.85;;;12.40;99.90;;;;;;5051769;28;20045;-74
2022/10/15 04:23:34;;;;;;;41.60;23.63;;;12.40;99.90;;;;;;5054708;28;20107;-73
2022/10/15 04:26:01;;;;;;;43.58;24.20;;;12.30;99.90;;;;;;5054955;28;20040;-73
2022/10/15 04:28:27;;;;;;;40.22;23.08;;;12.40;99.90;;;;;;5072731;28;20048;-73
2022/10/15 04:30:57;;;;;;;40.70;23.15;;;12.50;99.90;;;;;;5071815;28;20045;-73
2022/10/15 04:33:23;;;;;;;38.85;22.67;;;12.30;99.90;;;;;;5072687;28;20048;-73
2022/10/15 04:36:04;;;;;;;40.92;23.45;;;12.50;99.90;;;;;;5072839;28;20071;-73
2022/10/15 04:38:30;;;;;;;38.88;22.40;;;12.40;99.90;;;;;;5072852;28;20468;-74
2022/10/15 04:41:08;;;;;;;39.42;21.75;;;12.40;99.90;;;;;;5071924;28;20045;-73
2022/10/15 04:43:34;;;;;;;39.00;21.60;;;12.40;99.90;;;;;;5072291;28;20045;-73
2022/10/15 04:46:01;;;;;;;36.95;21.88;;;12.40;99.90;;;;;;5072721;28;20110;-73
2022/10/15 04:48:29;;;;;;;41.38;23.30;;;12.40;99.90;;;;;;5071161;28;20052;-73
2022/10/15 04:51:01;;;;;;;40.30;23.13;;;12.30;99.90;;;;;;5052491;28;20044;-73
2022/10/15 04:53:27;;;;;;;45.08;24.40;;;12.30;99.90;;;;;;5067704;28;20401;-73
2022/10/15 04:55:52;;;;;;;40.75;22.55;;;12.50;99.90;;;;;;5052606;28;20045;-73
2022/10/15 04:58:18;;;;;;;40.80;22.35;;;12.30;99.90;;;;;;5035015;28;20374;-73
2022/10/15 05:00:44;;;;;;;39.20;21.77;;;12.30;99.90;;;;;;5051177;28;20053;-73
2022/10/15 05:03:09;;;;;;;39.20;22.67;;;12.40;99.90;;;;;;5052161;28;20044;-73
2022/10/15 05:05:35;;;;;;;39.42;21.50;;;12.30;99.90;;;;;;5056050;28;20045;-73
2022/10/15 05:08:02;;;;;;;38.58;22.35;;;12.30;99.90;;;;;;5056007;28;20053;-73
2022/10/15 05:10:28;;;;;;;41.13;22.40;;;12.30;99.90;;;;;;5056457;28;20061;-73
2022/10/15 05:12:54;;;;;;;46.70;23.92;;;12.30;99.90;;;;;;5055892;28;20400;-73
2022/10/15 05:15:20;;;;;;;40.25;22.08;;;12.30;99.90;;;;;;5055874;28;20051;-73
2022/10/15 05:17:45;;;;;;;42.67;22.58;;;12.40;99.90;;;;;;5055990;28;20049;-74
2022/10/15 05:20:11;;;;;;;37.95;22.52;;;12.30;99.90;;;;;;5055917;28;20051;-73
2022/10/15 05:22:37;;;;;;;46.72;23.73;;;12.50;99.90;;;;;;5055731;28;20048;-74
2022/10/15 05:25:03;;;;;;;40.33;22.73;;;12.30;99.90;;;;;;5056289;28;20470;-73
2022/10/15 05:27:28;;;;;;;42.90;23.70;;;12.30;99.90;;;;;;5055359;28;20520;-73
2022/10/15 05:29:54;;;;;;;43.45;22.95;;;12.40;99.90;;;;;;5056064;28;20055;-73
2022/10/15 05:32:20;;;;;;;43.03;23.55;;;12.40;99.90;;;;;;5055885;28;20045;-73
2022/10/15 05:34:45;;;;;;;41.88;23.88;;;12.30;99.90;;;;;;5071101;28;20045;-74
2022/10/15 05:37:11;;;;;;;47.33;24.42;;;12.40;99.90;;;;;;5055672;28;20465;-74
2022/10/15 05:39:37;;;;;;;44.05;25.30;;;12.50;99.90;;;;;;5054836;28;20087;-74
2022/10/15 05:42:02;;;;;;;42.80;23.35;;;12.20;99.90;;;;;;5054073;28;20465;-73
2022/10/15 05:44:28;;;;;;;39.72;22.58;;;12.10;99.90;;;;;;5055611;28;20477;-73
2022/10/15 05:46:54;;;;;;;47.60;25.45;;;12.30;99.90;;;;;;5071357;28;20473;-73
2022/10/15 05:49:19;;;;;;;50.25;25.17;;;12.30;99.90;;;;;;5055675;28;20098;-73
2022/10/15 05:51:45;;;;;;;43.72;23.17;;;12.20;99.90;;;;;;5071065;28;20139;-74
2022/10/15 05:54:11;;;;;;;52.33;26.45;;;12.40;99.90;;;;;;5055236;28;20092;-73
2022/10/15 05:56:36;;;;;;;46.30;25.58;;;12.20;99.90;;;;;;5054425;28;20040;-73
2022/10/15 05:59:03;;;;;;;46.80;25.10;;;12.30;99.90;;;;;;5037709;28;20052;-73
2022/10/15 06:01:29;;;;;;;46.17;24.55;;;12.30;99.90;;;;;;5054269;28;20053;-73
2022/10/15 06:03:54;;;;;;;42.53;24.17;;;12.20;99.90;;;;;;5055321;28;20094;-73
2022/10/15 06:06:23;;;;;;;49.58;25.95;;;12.20;99.90;;;;;;5054089;28;20049;-73
2022/10/15 06:08:50;;;;;;;45.72;24.67;;;12.40;99.90;;;;;;5054884;28;20516;-73
2022/10/15 06:11:17;;;;;;;46.97;25.45;;;12.20;99.90;;;;;;5054559;28;20139;-73
2022/10/15 06:13:44;;;;;;;42.75;24.83;;;12.20;99.90;;;;;;5053513;28;20053;-73
2022/10/15 06:16:10;;;;;;;50.00;25.55;;;12.10;99.90;;;;;;5053748;28;20485;-73
2022/10/15 06:18:37;;;;;;;46.08;25.23;;;12.20;99.90;;;;;;5054171;28;20107;-73
2022/10/15 06:21:04;;;;;;;52.95;25.95;;;12.20;99.90;;;;;;5053470;28;20057;-73
2022/10/15 06:23:30;;;;;;;50.20;26.83;;;12.10;99.90;;;;;;5053725;28;20044;-73
2022/10/15 06:25:55;;;;;;;45.67;25.23;;;12.50;99.90;;;;;;5055026;28;20107;-73
2022/10/15 06:28:21;;;;;;;43.90;25.85;;;12.20;99.90;;;;;;5070432;28;20052;-73
2022/10/15 06:30:47;;;;;;;52.95;26.90;;;12.40;99.90;;;;;;5054827;28;20562;-73
2022/10/15 06:33:15;;;;;;;48.28;26.63;;;12.30;99.90;;;;;;5053601;28;20075;-73
2022/10/15 06:35:40;;;;;;;44.92;24.92;;;12.20;99.90;;;;;;5070080;28;20405;-73
2022/10/15 06:38:06;;;;;;;46.33;24.70;;;12.20;99.90;;;;;;5054433;28;20041;-72
2022/10/15 06:40:32;;;;;;;45.25;25.70;;;12.20;99.90;;;;;;5054631;28;20127;-73
2022/10/15 06:43:09;;;;;;;48.28;26.75;;;12.20;99.90;;;;;;5053046;28;20475;-73
2022/10/15 06:45:41;;;;;;;47.70;26.40;;;12.40;99.90;;;;;;5069951;28;20049;-74
2022/10/15 06:48:07;;;;;;;44.60;25.35;;;12.40;99.90;;;;;;5070095;28;20128;-73
2022/10/15 06:50:38;;;;;;;52.90;26.88;;;12.30;99.90;;;;;;5053306;28;20048;-73
2022/10/15 06:53:04;;;;;;;47.40;26.50;;;12.20;99.90;;;;;;5054739;28;20048;-73
2022/10/15 06:55:30;;;;;;;46.65;26.90;;;12.50;99.90;;;;;;5036325;28;20405;-73
2022/10/15 06:57:56;;;;;;;58.75;28.52;;;12.50;99.90;;;;;;5054115;28;20053;-73
2022/10/15 07:00:23;;;;;;;51.33;27.75;;;12.20;99.90;;;;;;5054263;28;20048;-75
2022/10/15 07:02:50;;;;;;;56.65;29.98;;;12.30;99.90;;;;;;5054012;28;20049;-73
2022/10/15 07:05:16;;;;;;;57.40;29.25;;;12.30;99.90;;;;;;5054258;28;20051;-73
2022/10/15 07:07:42;;;;;;;45.78;24.80;;;12.50;99.90;;;;;;5052837;28;20048;-73
2022/10/15 07:10:08;;;;;;;50.47;28.73;;;12.20;99.90;;;;;;5053796;28;20132;-73
2022/10/15 07:12:34;;;;;;;53.03;28.55;;;12.30;99.90;;;;;;5052304;28;20057;-73
2022/10/15 07:15:00;;;;;;;52.10;27.77;;;12.40;99.90;;;;;;5052787;28;20072;-73
2022/10/15 07:17:26;;;;;;;51.20;27.70;;;12.40;99.90;;;;;;5053760;28;20081;-73
2022/10/15 07:19:52;;;;;;;50.38;25.92;;;12.40;99.90;;;;;;5053853;28;20056;-72
2022/10/15 07:22:18;;;;;;;54.67;28.80;;;12.30;99.90;;;;;;5036227;28;20053;-73
2022/10/15 07:24:43;;;;;;;51.80;28.00;;;12.40;99.90;;;;;;5053565;28;20048;-73
2022/10/15 07:27:09;;;;;;;52.10;28.33;;;12.50;99.90;;;;;;5035987;28;20052;-73
2022/10/15 07:29:35;;;;;;;49.55;28.35;;;12.40;99.90;;;;;;5053571;28;20404;-75
2022/10/15 07:32:01;;;;;;;46.72;27.23;;;12.40;99.90;;;;;;5053439;28;20056;-73
2022/10/15 07:34:26;;;;;;;51.08;27.60;;;12.50;99.90;;;;;;5053307;28;20535;-73
2022/10/15 07:36:52;;;;;;;49.13;26.70;;;12.50;99.90;;;;;;5053376;28;20045;-72
2022/10/15 07:39:18;;;;;;;48.78;26.38;;;12.50;99.90;;;;;;5052835;28;20504;-73
2022/10/15 07:41:45;;;;;;;45.47;26.20;;;12.80;99.90;;;;;;5052878;28;20057;-74
2022/10/15 07:44:11;;;;;;;49.13;26.38;;;12.60;99.90;;;;;;5053532;28;20040;-72
2022/10/15 07:46:36;;;;;;;52.10;26.95;;;12.60;99.90;;;;;;5051948;28;20504;-73
2022/10/15 07:49:02;;;;;;;48.50;26.40;;;12.50;99.90;;;;;;5069138;28;20065;-73
2022/10/15 07:51:28;;;;;;;45.17;24.92;;;12.60;99.90;;;;;;5053819;28;20041;-73
2022/10/15 07:53:54;;;;;;;42.65;23.52;;;12.70;99.90;;;;;;5052905;28;20477;-74
2022/10/15 07:56:20;;;;;;;47.92;25.17;;;12.70;99.90;;;;;;5060644;28;20047;-71
2022/10/15 07:58:52;;;;;;;44.35;25.58;;;12.60;99.90;;;;;;5060358;28;20075;-73
2022/10/15 08:01:19;;;;;;;49.80;25.70;;;12.80;99.90;;;;;;5062268;28;20044;-72
2022/10/15 08:03:46;;;;;;;46.13;26.30;;;12.60;99.90;;;;;;5063585;28;20044;-73
2022/10/15 08:06:12;;;;;;;49.90;27.02;;;12.80;99.90;;;;;;5062337;28;20043;-71
2022/10/15 08:08:38;;;;;;;44.92;26.40;;;12.80;99.90;;;;;;5061891;28;20150;-73
2022/10/15 08:11:12;;;;;;;45.40;25.35;;;12.70;99.90;;;;;;5063737;28;20139;-72
2022/10/15 08:13:41;;;;;;;48.20;26.55;;;12.80;99.90;;;;;;5062730;28;20049;-73
2022/10/15 08:16:08;;;;;;;50.67;27.45;;;12.90;99.90;;;;;;5061506;28;20132;-74
2022/10/15 08:18:35;;;;;;;45.60;25.13;;;13.10;99.90;;;;;;5062696;28;20123;-71
2022/10/15 08:21:00;;;;;;;42.40;24.77;;;14.20;99.90;;;;;;5063131;28;20073;-72
2022/10/15 08:23:27;;;;;;;44.00;23.92;;;12.90;99.90;;;;;;5060123;28;20081;-73
2022/10/15 08:25:52;;;;;;;39.75;24.80;;;13.00;99.90;;;;;;5062601;28;20077;-73
2022/10/15 08:28:18;;;;;;;47.15;25.20;;;13.10;99.90;;;;;;5062016;28;20037;-73
2022/10/15 08:30:44;;;;;;;42.15;23.77;;;12.90;99.90;;;;;;5060150;28;20123;-73
2022/10/15 08:33:09;;;;;;;40.53;23.83;;;12.90;99.90;;;;;;5063093;28;20048;-73
2022/10/15 08:35:37;;;;;;;40.17;23.60;;;12.90;99.90;;;;;;5061149;28;20052;-73
2022/10/15 08:38:04;;;;;;;44.42;24.98;;;13.20;99.90;;;;;;5060599;28;20076;-73
2022/10/15 08:40:30;;;;;;;43.55;23.95;;;13.10;99.90;;;;;;5062994;28;20072;-73
2022/10/15 08:42:56;;;;;;;41.97;24.77;;;12.90;99.90;;;;;;5061677;28;20083;-73
2022/10/15 08:45:37;;;;;;;42.60;24.08;;;13.10;99.90;;;;;;5061348;28;20086;-72
2022/10/15 08:48:16;;;;;;;44.40;24.17;;;13.10;99.90;;;;;;5061052;28;20057;-73
2022/10/15 08:50:54;;;;;;;40.65;23.38;;;13.30;99.90;;;;;;5060281;28;20052;-71
2022/10/15 08:53:22;;;;;;;36.85;21.92;;;13.10;99.90;;;;;;5057343;28;20044;-74
2022/10/15 08:55:50;;;;;;;39.95;23.52;;;13.40;99.90;;;;;;5057137;28;20037;-73
2022/10/15 08:58:24;;;;;;;40.45;22.95;;;13.20;99.90;;;;;;5058333;28;20033;-74
2022/10/15 09:01:05;;;;;;;35.88;22.50;;;13.20;99.90;;;;;;5058840;28;20083;-74
2022/10/15 09:03:47;;;;;;;40.90;23.20;;;13.00;99.90;;;;;;5057938;28;20064;-74
2022/10/15 09:06:13;;;;;;;36.72;21.92;;;13.20;99.90;;;;;;5059867;28;20128;-73
2022/10/15 09:08:55;;;;;;;38.35;23.15;;;13.40;99.90;;;;;;5058075;28;20127;-74
2022/10/15 09:11:51;;;;;;;35.72;22.80;;;13.40;99.90;;;;;;5062148;28;20060;-74
2022/10/15 09:14:27;;;;;;;35.30;22.50;;;13.50;99.90;;;;;;5073852;28;20055;-74
2022/10/15 09:16:53;;;;;;;36.60;22.55;;;13.60;99.90;;;;;;5059606;28;20052;-74
2022/10/15 09:19:22;;;;;;;37.45;22.45;;;13.40;99.90;;;;;;5051915;28;20041;-74
2022/10/15 09:21:50;;;;;;;40.92;24.30;;;13.50;99.90;;;;;;5062494;28;20132;-74
2022/10/15 09:24:21;;;;;;;38.90;23.42;;;13.50;99.90;;;;;;5057197;28;20056;-74
2022/10/15 09:27:01;;;;;;;37.10;23.98;;;13.60;99.90;;;;;;5058989;28;20362;-73
2022/10/15 09:29:53;;;;;;;35.97;22.33;;;13.70;99.90;;;;;;5058552;28;20037;-71
2022/10/15 09:32:19;;;;;;;34.53;22.23;;;13.90;99.90;;;;;;5040475;28;20061;-71
2022/10/15 09:35:19;;;;;;;35.90;22.42;;;13.90;99.90;;;;;;5062198;28;20049;-73
2022/10/15 09:38:00;;;;;;;36.45;22.70;;;14.00;99.90;;;;;;5057764;28;20409;-72
2022/10/15 09:40:44;;;;;;;36.00;22.65;;;13.80;99.90;;;;;;5057075;28;20045;-72
2022/10/15 09:43:11;;;;;;;33.85;21.25;;;13.70;99.90;;;;;;5059172;28;20073;-73
2022/10/15 09:45:37;;;;;;;34.05;22.48;;;13.90;99.90;;;;;;5060295;28;20082;-73
2022/10/15 09:48:16;;;;;;;33.70;21.85;;;14.00;99.90;;;;;;5060451;28;20045;-72
2022/10/15 09:50:49;;;;;;;31.92;21.75;;;14.10;99.90;;;;;;5062299;28;20370;-72
2022/10/15 09:53:35;;;;;;;31.45;22.02;;;14.00;99.90;;;;;;5064341;28;20123;-72
2022/10/15 09:56:13;;;;;;;33.05;20.92;;;14.20;99.90;;;;;;5065473;28;20404;-73
2022/10/15 09:58:53;;;;;;;31.90;19.83;;;14.20;99.90;;;;;;5065951;28;20118;-73
2022/10/15 10:01:22;;;;;;;32.80;21.65;;;14.20;99.90;;;;;;5066052;28;20514;-73
2022/10/15 10:04:16;;;;;;;28.90;21.05;;;14.00;99.90;;;;;;5063310;28;20459;-72
2022/10/15 10:06:49;;;;;;;30.73;21.15;;;14.30;99.90;;;;;;5065534;28;20045;-73
2022/10/15 10:09:32;;;;;;;33.38;22.38;;;14.10;99.90;;;;;;5064917;28;20045;-72
2022/10/15 10:12:01;;;;;;;31.55;20.77;;;14.50;99.90;;;;;;5063180;28;20053;-72
2022/10/15 10:14:40;;;;;;;28.13;19.42;;;13.90;99.90;;;;;;5061462;28;20481;-72
2022/10/15 10:17:18;;;;;;;27.85;19.33;;;14.00;99.90;;;;;;5061443;28;20090;-73
2022/10/15 10:20:00;;;;;;;29.33;19.55;;;14.20;99.90;;;;;;5062274;28;20564;-73
2022/10/15 10:22:26;;;;;;;28.43;18.77;;;14.10;99.90;;;;;;5061431;28;20047;-72
2022/10/15 10:24:52;;;;;;;31.48;18.63;;;14.40;99.90;;;;;;5063483;28;20275;-73
2022/10/15 10:27:20;;;;;;;29.70;19.02;;;14.00;99.90;;;;;;5064747;28;20072;-74
2022/10/15 10:29:58;;;;;;;28.85;18.02;;;14.20;99.90;;;;;;5059627;28;20048;-73
2022/10/15 10:32:33;;;;;;;30.58;17.73;;;14.00;99.90;;;;;;5045398;28;20485;-74
2022/10/15 10:35:01;;;;;;;35.72;19.23;;;13.80;99.90;;;;;;5045645;28;20044;-74
2022/10/15 10:37:28;;;;;;;29.83;17.52;;;13.90;99.90;;;;;;5061259;28;20118;-73
2022/10/15 10:39:56;;;;;;;31.15;18.70;;;14.00;99.90;;;;;;5062685;28;20571;-73
2022/10/15 10:42:32;;;;;;;32.00;18.00;;;14.00;99.90;;;;;;5064880;28;20445;-74
2022/10/15 10:45:15;;;;;;;30.63;18.45;;;14.00;99.90;;;;;;5063900;28;20064;-74
2022/10/15 10:47:41;;;;;;;33.25;18.13;;;14.00;99.90;;;;;;5063381;28;20067;-74
2022/10/15 10:50:27;;;;;;;32.38;18.02;;;13.80;99.90;;;;;;5063217;28;20068;-74
2022/10/15 10:52:53;;;;;;;30.25;16.85;;;13.90;99.90;;;;;;5062507;28;20448;-75
2022/10/15 10:55:25;;;;;;;27.95;17.05;;;13.80;99.90;;;;;;5063076;28;20044;-74
2022/10/15 10:57:57;;;;;;;29.70;16.73;;;13.60;99.90;;;;;;5061650;28;20052;-73
2022/10/15 11:00:45;;;;;;;30.90;16.75;;;14.00;99.90;;;;;;5062415;28;20283;-74
2022/10/15 11:03:31;;;;;;;27.23;15.77;;;13.80;99.90;;;;;;5060895;28;20047;-74
2022/10/15 11:06:15;;;;;;;26.35;15.00;;;13.80;99.90;;;;;;5063043;28;20036;-73
2022/10/15 11:09:19;;;;;;;28.92;15.73;;;13.90;99.90;;;;;;5064352;28;20051;-74
2022/10/15 11:11:56;;;;;;;26.08;15.05;;;13.80;99.90;;;;;;5063631;28;20088;-74
2022/10/15 11:14:27;;;;;;;24.80;14.30;;;13.80;99.90;;;;;;5064298;28;20052;-74
2022/10/15 11:17:02;;;;;;;26.83;15.15;;;13.70;99.90;;;;;;5061854;28;20037;-75
2022/10/15 11:19:36;;;;;;;26.88;14.82;;;14.00;99.90;;;;;;5055536;28;20068;-74
2022/10/15 11:22:23;;;;;;;26.23;14.85;;;14.20;99.90;;;;;;5062406;28;20489;-73
2022/10/15 11:24:58;;;;;;;24.15;14.35;;;14.10;99.90;;;;;;5059749;28;20048;-73
2022/10/15 11:27:36;;;;;;;24.15;14.50;;;14.20;99.90;;;;;;5062302;28;20440;-74
2022/10/15 11:30:04;;;;;;;22.85;14.10;;;14.10;99.90;;;;;;5061909;28;20048;-74
2022/10/15 11:32:32;;;;;;;20.98;13.20;;;14.30;99.90;;;;;;5063068;28;20045;-74
2022/10/15 11:35:31;;;;;;;23.63;14.10;;;14.50;99.90;;;;;;5061976;28;20036;-74
2022/10/15 11:38:16;;;;;;;19.60;13.18;;;14.30;99.90;;;;;;5062368;28;20040;-74
2022/10/15 11:41:11;;;;;;;20.92;12.65;;;14.50;99.90;;;;;;5062664;28;20041;-74
2022/10/15 11:43:57;;;;;;;22.48;13.10;;;;;;;;;;5061577;28;20543;-74
2022/10/15 11:46:38;;;;;;;20.75;12.60;;;14.40;99.90;;;;;;5079201;28;20432;-76
2022/10/15 11:49:25;;;;;;;20.45;12.30;;;14.50;99.90;;;;;;5063865;28;20091;-74
2022/10/15 11:52:11;;;;;;;15.80;11.35;;;14.70;99.90;;;;;;5059148;28;20041;-75
2022/10/15 11:54:53;;;;;;;19.27;12.15;;;14.70;99.90;;;;;;5062015;28;20055;-74
2022/10/15 11:57:20;;;;;;;19.65;12.02;;;14.70;99.90;;;;;;5059193;28;20048;-74
2022/10/15 11:59:49;;;;;;;19.13;12.07;;;14.50;99.90;;;;;;5058985;28;20055;-74
2022/10/15 12:02:23;;;;;;;20.08;11.85;;;14.60;99.90;;;;;;5061358;28;20040;-74
2022/10/15 12:04:55;;;;;;;18.35;12.65;;;14.50;99.90;;;;;;5059126;28;20052;-74
2022/10/15 12:07:41;;;;;;;16.02;11.18;;;14.40;99.90;;;;;;5061060;28;20511;-72
2022/10/15 12:10:46;;;;;;;16.63;10.98;;;14.90;99.90;;;;;;5063526;28;20056;-72
2022/10/15 12:13:44;;;;;;;16.92;10.82;;;14.70;99.90;;;;;;5059418;28;20084;-73
2022/10/15 12:16:13;;;;;;;17.75;11.38;;;14.70;99.90;;;;;;5058692;28;20058;-72
2022/10/15 12:18:52;;;;;;;18.70;11.82;;;14.50;99.90;;;;;;5059693;28;20057;-72
2022/10/15 12:21:35;;;;;;;18.10;11.95;;;14.80;99.90;;;;;;5059346;28;20063;-72
2022/10/15 12:24:02;;;;;;;18.83;11.95;;;14.60;99.90;;;;;;5060882;28;20053;-74
2022/10/15 12:26:31;;;;;;;18.98;12.20;;;14.70;99.90;;;;;;5061624;28;20485;-73
2022/10/15 12:28:59;;;;;;;16.02;11.05;;;14.80;99.90;;;;;;5060242;28;20071;-71
2022/10/15 12:31:41;;;;;;;18.58;12.05;;;14.80;99.90;;;;;;5062623;28;20583;-72
2022/10/15 12:34:25;;;;;;;18.30;12.63;;;14.70;99.90;;;;;;5056452;28;20045;-72
2022/10/15 12:37:03;;;;;;;20.00;12.23;;;15.00;99.90;;;;;;5059621;28;20298;-72
2022/10/15 12:39:30;;;;;;;19.17;12.82;;;14.70;99.90;;;;;;5058928;28;20507;-72
2022/10/15 12:41:57;;;;;;;18.38;11.38;;;15.00;99.90;;;;;;5061262;28;20047;-72
2022/10/15 12:44:34;;;;;;;19.55;11.88;;;14.70;99.90;;;;;;5060820;28;20102;-73
2022/10/15 12:47:00;;;;;;;15.45;11.68;;;14.80;99.90;;;;;;5061248;28;20474;-73